sensor_id;sensor_type;location;lat;lon;timestamp;temperature;humidity
57552;DHT22;43379;48.160;14.036;2023-05-09T00:02:12;12.40;93.00
57552;DHT22;43379;48.160;14.036;2023-05-09T00:04:38;12.40;92.90
57552;DHT22;43379;48.160;14.036;2023-05-09T00:07:03;12.30;92.90
57552;DHT22;43379;48.160;14.036;2023-05-09T00:09:29;12.30;92.80
57552;DHT22;43379;48.160;14.036;2023-05-09T00:11:55;12.30;92.90
57552;DHT22;43379;48.160;14.036;2023-05-09T00:14:20;12.20;93.00
57552;DHT22;43379;48.160;14.036;2023-05-09T00:16:46;12.20;93.00
57552;DHT22;43379;48.160;14.036;2023-05-09T00:19:12;12.20;92.80
57552;DHT22;43379;48.160;14.036;2023-05-09T00:21:38;12.10;92.70
57552;DHT22;43379;48.160;14.036;2023-05-09T00:24:04;12.10;92.70
57552;DHT22;43379;48.160;14.036;2023-05-09T00:26:30;12.10;92.70
57552;DHT22;43379;48.160;14.036;2023-05-09T00:28:56;12.10;92.60
57552;DHT22;43379;48.160;14.036;2023-05-09T00:31:21;12.00;92.60
57552;DHT22;43379;48.160;14.036;2023-05-09T00:33:47;11.90;92.50
57552;DHT22;43379;48.160;14.036;2023-05-09T00:36:12;11.90;92.60
57552;DHT22;43379;48.160;14.036;2023-05-09T00:38:38;11.90;92.50
57552;DHT22;43379;48.160;14.036;2023-05-09T00:41:04;11.80;92.30
57552;DHT22;43379;48.160;14.036;2023-05-09T00:43:29;11.70;92.50
57552;DHT22;43379;48.160;14.036;2023-05-09T00:45:55;11.70;92.50
57552;DHT22;43379;48.160;14.036;2023-05-09T00:48:21;11.60;92.40
57552;DHT22;43379;48.160;14.036;2023-05-09T00:50:47;11.60;92.60
57552;DHT22;43379;48.160;14.036;2023-05-09T00:53:20;11.60;92.40
57552;DHT22;43379;48.160;14.036;2023-05-09T00:55:46;11.60;92.40
57552;DHT22;43379;48.160;14.036;2023-05-09T00:58:12;11.50;92.20
57552;DHT22;43379;48.160;14.036;2023-05-09T01:00:37;11.50;92.30
57552;DHT22;43379;48.160;14.036;2023-05-09T01:03:03;11.50;92.40
57552;DHT22;43379;48.160;14.036;2023-05-09T01:08:26;11.30;92.30
57552;DHT22;43379;48.160;14.036;2023-05-09T01:11:02;11.20;92.30
57552;DHT22;43379;48.160;14.036;2023-05-09T01:16:25;11.20;92.30
57552;DHT22;43379;48.160;14.036;2023-05-09T01:21:48;11.10;92.30
57552;DHT22;43379;48.160;14.036;2023-05-09T01:24:31;11.10;92.40
57552;DHT22;43379;48.160;14.036;2023-05-09T01:27:21;11.10;92.30
57552;DHT22;43379;48.160;14.036;2023-05-09T01:29:54;11.10;92.50
57552;DHT22;43379;48.160;14.036;2023-05-09T01:32:27;11.10;92.40
57552;DHT22;43379;48.160;14.036;2023-05-09T01:34:55;11.20;92.60
57552;DHT22;43379;48.160;14.036;2023-05-09T01:37:32;11.20;92.30
57552;DHT22;43379;48.160;14.036;2023-05-09T01:40:03;11.10;92.20
57552;DHT22;43379;48.160;14.036;2023-05-09T01:45:32;11.00;92.60
57552;DHT22;43379;48.160;14.036;2023-05-09T01:47:58;10.90;92.20
57552;DHT22;43379;48.160;14.036;2023-05-09T01:50:26;10.90;92.30
57552;DHT22;43379;48.160;14.036;2023-05-09T01:52:55;10.90;92.50
57552;DHT22;43379;48.160;14.036;2023-05-09T01:55:25;10.90;92.40
57552;DHT22;43379;48.160;14.036;2023-05-09T01:57:52;10.90;92.50
57552;DHT22;43379;48.160;14.036;2023-05-09T02:00:19;10.80;92.70
57552;DHT22;43379;48.160;14.036;2023-05-09T02:02:45;10.70;92.70
57552;DHT22;43379;48.160;14.036;2023-05-09T02:05:13;10.70;93.10
57552;DHT22;43379;48.160;14.036;2023-05-09T02:07:40;10.70;92.70
57552;DHT22;43379;48.160;14.036;2023-05-09T02:10:08;10.70;92.80
57552;DHT22;43379;48.160;14.036;2023-05-09T02:12:34;10.70;92.70
57552;DHT22;43379;48.160;14.036;2023-05-09T02:15:00;10.60;92.60
57552;DHT22;43379;48.160;14.036;2023-05-09T02:17:25;10.60;92.80
57552;DHT22;43379;48.160;14.036;2023-05-09T02:19:53;10.60;92.90
57552;DHT22;43379;48.160;14.036;2023-05-09T02:22:19;10.60;92.90
57552;DHT22;43379;48.160;14.036;2023-05-09T02:24:45;10.60;92.90
57552;DHT22;43379;48.160;14.036;2023-05-09T02:27:12;10.60;92.90
57552;DHT22;43379;48.160;14.036;2023-05-09T02:29:47;10.50;92.80
57552;DHT22;43379;48.160;14.036;2023-05-09T02:32:15;10.50;92.90
57552;DHT22;43379;48.160;14.036;2023-05-09T02:34:44;10.40;93.00
57552;DHT22;43379;48.160;14.036;2023-05-09T02:37:12;10.40;93.10
57552;DHT22;43379;48.160;14.036;2023-05-09T02:39:37;10.40;93.20
57552;DHT22;43379;48.160;14.036;2023-05-09T02:42:12;10.40;93.20
57552;DHT22;43379;48.160;14.036;2023-05-09T02:44:38;10.40;93.20
57552;DHT22;43379;48.160;14.036;2023-05-09T02:47:05;10.40;93.20
57552;DHT22;43379;48.160;14.036;2023-05-09T02:49:32;10.30;93.20
57552;DHT22;43379;48.160;14.036;2023-05-09T02:51:58;10.30;93.30
57552;DHT22;43379;48.160;14.036;2023-05-09T02:54:23;10.20;93.40
57552;DHT22;43379;48.160;14.036;2023-05-09T02:56:49;10.10;93.40
57552;DHT22;43379;48.160;14.036;2023-05-09T02:59:16;10.20;93.60
57552;DHT22;43379;48.160;14.036;2023-05-09T03:01:42;10.20;93.70
57552;DHT22;43379;48.160;14.036;2023-05-09T03:04:08;10.20;93.60
57552;DHT22;43379;48.160;14.036;2023-05-09T03:06:33;10.30;93.60
57552;DHT22;43379;48.160;14.036;2023-05-09T03:08:59;10.30;93.50
57552;DHT22;43379;48.160;14.036;2023-05-09T03:11:24;10.20;93.40
57552;DHT22;43379;48.160;14.036;2023-05-09T03:13:50;10.30;93.50
57552;DHT22;43379;48.160;14.036;2023-05-09T03:16:17;10.30;93.30
57552;DHT22;43379;48.160;14.036;2023-05-09T03:18:43;10.30;93.40
57552;DHT22;43379;48.160;14.036;2023-05-09T03:21:08;10.30;93.50
57552;DHT22;43379;48.160;14.036;2023-05-09T03:23:34;10.30;93.50
57552;DHT22;43379;48.160;14.036;2023-05-09T03:26:00;10.20;93.40
57552;DHT22;43379;48.160;14.036;2023-05-09T03:28:26;10.20;93.60
57552;DHT22;43379;48.160;14.036;2023-05-09T03:30:52;10.30;93.50
57552;DHT22;43379;48.160;14.036;2023-05-09T03:33:18;10.30;93.50
57552;DHT22;43379;48.160;14.036;2023-05-09T03:35:43;10.30;93.20
57552;DHT22;43379;48.160;14.036;2023-05-09T03:38:09;10.20;93.20
57552;DHT22;43379;48.160;14.036;2023-05-09T03:40:34;10.10;93.30
57552;DHT22;43379;48.160;14.036;2023-05-09T03:43:00;10.10;93.40
57552;DHT22;43379;48.160;14.036;2023-05-09T03:45:26;10.10;93.50
57552;DHT22;43379;48.160;14.036;2023-05-09T03:47:51;10.10;93.60
57552;DHT22;43379;48.160;14.036;2023-05-09T03:50:17;10.10;93.60
57552;DHT22;43379;48.160;14.036;2023-05-09T03:52:43;10.10;93.50
57552;DHT22;43379;48.160;14.036;2023-05-09T03:55:09;10.10;93.50
57552;DHT22;43379;48.160;14.036;2023-05-09T03:57:35;10.00;93.60
57552;DHT22;43379;48.160;14.036;2023-05-09T04:00:01;10.00;93.60
57552;DHT22;43379;48.160;14.036;2023-05-09T04:02:27;10.00;93.60
57552;DHT22;43379;48.160;14.036;2023-05-09T04:04:53;10.00;93.70
57552;DHT22;43379;48.160;14.036;2023-05-09T04:07:19;10.00;93.70
57552;DHT22;43379;48.160;14.036;2023-05-09T04:09:45;10.00;93.80
57552;DHT22;43379;48.160;14.036;2023-05-09T04:12:11;10.00;93.90
57552;DHT22;43379;48.160;14.036;2023-05-09T04:14:37;10.10;93.90
57552;DHT22;43379;48.160;14.036;2023-05-09T04:17:03;10.10;93.80
57552;DHT22;43379;48.160;14.036;2023-05-09T04:19:29;10.20;93.80
57552;DHT22;43379;48.160;14.036;2023-05-09T04:21:55;10.20;93.70
57552;DHT22;43379;48.160;14.036;2023-05-09T04:24:20;10.20;93.70
57552;DHT22;43379;48.160;14.036;2023-05-09T04:26:46;10.20;93.70
57552;DHT22;43379;48.160;14.036;2023-05-09T04:29:12;10.20;93.60
57552;DHT22;43379;48.160;14.036;2023-05-09T04:31:38;10.20;93.70
57552;DHT22;43379;48.160;14.036;2023-05-09T04:34:03;10.20;93.70
57552;DHT22;43379;48.160;14.036;2023-05-09T04:36:29;10.30;93.90
57552;DHT22;43379;48.160;14.036;2023-05-09T04:38:56;10.30;93.70
57552;DHT22;43379;48.160;14.036;2023-05-09T04:41:21;10.40;93.80
57552;DHT22;43379;48.160;14.036;2023-05-09T04:43:48;10.50;93.80
57552;DHT22;43379;48.160;14.036;2023-05-09T04:46:14;10.60;93.80
57552;DHT22;43379;48.160;14.036;2023-05-09T04:48:39;10.70;93.50
57552;DHT22;43379;48.160;14.036;2023-05-09T04:51:05;10.80;93.50
57552;DHT22;43379;48.160;14.036;2023-05-09T04:53:32;10.80;93.00
57552;DHT22;43379;48.160;14.036;2023-05-09T04:55:58;10.90;93.30
57552;DHT22;43379;48.160;14.036;2023-05-09T04:58:24;11.00;93.10
57552;DHT22;43379;48.160;14.036;2023-05-09T05:00:51;11.00;93.00
57552;DHT22;43379;48.160;14.036;2023-05-09T05:03:17;11.10;93.10
57552;DHT22;43379;48.160;14.036;2023-05-09T05:05:43;11.10;93.00
57552;DHT22;43379;48.160;14.036;2023-05-09T05:08:08;11.30;93.20
57552;DHT22;43379;48.160;14.036;2023-05-09T05:10:34;11.40;93.10
57552;DHT22;43379;48.160;14.036;2023-05-09T05:13:00;11.50;93.10
57552;DHT22;43379;48.160;14.036;2023-05-09T05:15:26;11.70;92.70
57552;DHT22;43379;48.160;14.036;2023-05-09T05:17:52;11.90;92.80
57552;DHT22;43379;48.160;14.036;2023-05-09T05:20:17;11.90;92.30
57552;DHT22;43379;48.160;14.036;2023-05-09T05:22:43;11.90;92.10
57552;DHT22;43379;48.160;14.036;2023-05-09T05:25:09;11.90;92.10
57552;DHT22;43379;48.160;14.036;2023-05-09T05:27:34;12.10;92.20
57552;DHT22;43379;48.160;14.036;2023-05-09T05:30:00;12.30;92.40
57552;DHT22;43379;48.160;14.036;2023-05-09T05:32:26;12.30;91.70
57552;DHT22;43379;48.160;14.036;2023-05-09T05:34:52;12.10;91.50
57552;DHT22;43379;48.160;14.036;2023-05-09T05:37:17;12.10;92.00
57552;DHT22;43379;48.160;14.036;2023-05-09T05:39:43;12.00;91.70
57552;DHT22;43379;48.160;14.036;2023-05-09T05:42:09;12.10;91.70
57552;DHT22;43379;48.160;14.036;2023-05-09T05:44:34;12.00;91.70
57552;DHT22;43379;48.160;14.036;2023-05-09T05:47:00;12.00;92.10
57552;DHT22;43379;48.160;14.036;2023-05-09T05:49:26;12.00;91.80
57552;DHT22;43379;48.160;14.036;2023-05-09T05:51:51;11.90;91.80
57552;DHT22;43379;48.160;14.036;2023-05-09T05:54:17;11.80;91.80
57552;DHT22;43379;48.160;14.036;2023-05-09T05:56:42;11.80;92.10
57552;DHT22;43379;48.160;14.036;2023-05-09T05:59:08;12.00;92.40
57552;DHT22;43379;48.160;14.036;2023-05-09T06:01:34;12.30;92.70
57552;DHT22;43379;48.160;14.036;2023-05-09T06:03:59;12.50;92.10
57552;DHT22;43379;48.160;14.036;2023-05-09T06:06:25;12.70;91.50
57552;DHT22;43379;48.160;14.036;2023-05-09T06:08:51;12.70;91.40
57552;DHT22;43379;48.160;14.036;2023-05-09T06:11:17;12.70;91.20
57552;DHT22;43379;48.160;14.036;2023-05-09T06:13:43;12.70;91.10
57552;DHT22;43379;48.160;14.036;2023-05-09T06:16:09;12.70;91.30
57552;DHT22;43379;48.160;14.036;2023-05-09T06:18:35;12.80;91.70
57552;DHT22;43379;48.160;14.036;2023-05-09T06:21:05;12.70;91.10
57552;DHT22;43379;48.160;14.036;2023-05-09T06:23:31;12.70;91.30
57552;DHT22;43379;48.160;14.036;2023-05-09T06:25:57;12.60;91.30
57552;DHT22;43379;48.160;14.036;2023-05-09T06:28:23;12.60;91.60
57552;DHT22;43379;48.160;14.036;2023-05-09T06:30:48;12.60;91.60
57552;DHT22;43379;48.160;14.036;2023-05-09T06:33:14;12.80;91.70
57552;DHT22;43379;48.160;14.036;2023-05-09T06:35:40;12.90;91.50
57552;DHT22;43379;48.160;14.036;2023-05-09T06:38:06;13.20;92.00
57552;DHT22;43379;48.160;14.036;2023-05-09T06:40:31;13.40;91.40
57552;DHT22;43379;48.160;14.036;2023-05-09T06:42:57;13.60;90.90
57552;DHT22;43379;48.160;14.036;2023-05-09T06:45:23;13.80;90.80
57552;DHT22;43379;48.160;14.036;2023-05-09T06:47:48;14.00;90.70
57552;DHT22;43379;48.160;14.036;2023-05-09T06:50:14;14.00;90.20
57552;DHT22;43379;48.160;14.036;2023-05-09T06:52:40;14.10;90.50
57552;DHT22;43379;48.160;14.036;2023-05-09T06:55:06;14.40;91.20
57552;DHT22;43379;48.160;14.036;2023-05-09T06:57:32;14.80;90.80
57552;DHT22;43379;48.160;14.036;2023-05-09T06:59:58;14.90;89.50
57552;DHT22;43379;48.160;14.036;2023-05-09T07:02:23;15.00;89.60
57552;DHT22;43379;48.160;14.036;2023-05-09T07:04:49;15.10;89.50
57552;DHT22;43379;48.160;14.036;2023-05-09T07:07:14;15.30;88.50
57552;DHT22;43379;48.160;14.036;2023-05-09T07:09:40;15.40;88.60
57552;DHT22;43379;48.160;14.036;2023-05-09T07:12:06;15.60;89.70
57552;DHT22;43379;48.160;14.036;2023-05-09T07:14:32;15.80;87.70
57552;DHT22;43379;48.160;14.036;2023-05-09T07:16:57;16.00;87.40
57552;DHT22;43379;48.160;14.036;2023-05-09T07:19:23;16.20;87.10
57552;DHT22;43379;48.160;14.036;2023-05-09T07:21:48;16.30;86.90
57552;DHT22;43379;48.160;14.036;2023-05-09T07:24:14;16.40;85.50
57552;DHT22;43379;48.160;14.036;2023-05-09T07:26:40;16.50;86.80
57552;DHT22;43379;48.160;14.036;2023-05-09T07:29:06;16.80;87.10
57552;DHT22;43379;48.160;14.036;2023-05-09T07:31:32;17.00;86.10
57552;DHT22;43379;48.160;14.036;2023-05-09T07:33:57;17.00;85.70
57552;DHT22;43379;48.160;14.036;2023-05-09T07:36:23;17.00;84.10
57552;DHT22;43379;48.160;14.036;2023-05-09T07:38:49;17.10;84.90
57552;DHT22;43379;48.160;14.036;2023-05-09T07:41:18;17.10;85.40
57552;DHT22;43379;48.160;14.036;2023-05-09T07:43:43;17.40;85.70
57552;DHT22;43379;48.160;14.036;2023-05-09T07:46:09;17.50;85.00
57552;DHT22;43379;48.160;14.036;2023-05-09T07:48:35;17.50;83.40
57552;DHT22;43379;48.160;14.036;2023-05-09T07:51:01;17.80;84.90
57552;DHT22;43379;48.160;14.036;2023-05-09T07:53:26;17.70;83.10
57552;DHT22;43379;48.160;14.036;2023-05-09T07:55:52;17.90;84.50
57552;DHT22;43379;48.160;14.036;2023-05-09T07:58:18;17.90;83.50
57552;DHT22;43379;48.160;14.036;2023-05-09T08:00:43;18.00;85.00
57552;DHT22;43379;48.160;14.036;2023-05-09T08:03:09;18.30;83.60
57552;DHT22;43379;48.160;14.036;2023-05-09T08:05:35;18.30;83.10
57552;DHT22;43379;48.160;14.036;2023-05-09T08:08:00;18.30;83.20
57552;DHT22;43379;48.160;14.036;2023-05-09T08:10:26;18.50;85.20
57552;DHT22;43379;48.160;14.036;2023-05-09T08:12:55;18.30;83.00
57552;DHT22;43379;48.160;14.036;2023-05-09T08:15:21;18.70;82.80
57552;DHT22;43379;48.160;14.036;2023-05-09T08:17:46;18.90;82.90
57552;DHT22;43379;48.160;14.036;2023-05-09T08:20:12;19.00;81.50
57552;DHT22;43379;48.160;14.036;2023-05-09T08:22:38;19.10;81.70
57552;DHT22;43379;48.160;14.036;2023-05-09T08:25:06;19.30;82.00
57552;DHT22;43379;48.160;14.036;2023-05-09T08:27:31;19.30;81.50
57552;DHT22;43379;48.160;14.036;2023-05-09T08:29:57;19.50;83.50
57552;DHT22;43379;48.160;14.036;2023-05-09T08:32:23;19.80;82.80
57552;DHT22;43379;48.160;14.036;2023-05-09T08:34:49;20.10;82.90
57552;DHT22;43379;48.160;14.036;2023-05-09T08:37:15;20.50;81.40
57552;DHT22;43379;48.160;14.036;2023-05-09T08:39:40;20.30;80.20
57552;DHT22;43379;48.160;14.036;2023-05-09T08:42:07;20.10;78.10
57552;DHT22;43379;48.160;14.036;2023-05-09T08:44:33;20.10;78.50
57552;DHT22;43379;48.160;14.036;2023-05-09T08:47:01;19.80;78.60
57552;DHT22;43379;48.160;14.036;2023-05-09T08:49:27;19.80;79.90
57552;DHT22;43379;48.160;14.036;2023-05-09T08:51:54;19.70;79.00
57552;DHT22;43379;48.160;14.036;2023-05-09T08:54:21;19.80;81.10
57552;DHT22;43379;48.160;14.036;2023-05-09T08:56:47;19.90;80.70
57552;DHT22;43379;48.160;14.036;2023-05-09T08:59:13;20.10;82.40
57552;DHT22;43379;48.160;14.036;2023-05-09T09:01:39;20.30;82.30
57552;DHT22;43379;48.160;14.036;2023-05-09T09:04:07;20.40;81.50
57552;DHT22;43379;48.160;14.036;2023-05-09T09:06:34;20.70;80.80
57552;DHT22;43379;48.160;14.036;2023-05-09T09:09:00;20.70;80.50
57552;DHT22;43379;48.160;14.036;2023-05-09T09:11:29;20.70;80.00
57552;DHT22;43379;48.160;14.036;2023-05-09T09:14:00;20.80;79.60
57552;DHT22;43379;48.160;14.036;2023-05-09T09:16:28;20.90;79.30
57552;DHT22;43379;48.160;14.036;2023-05-09T09:18:54;20.70;78.10
57552;DHT22;43379;48.160;14.036;2023-05-09T09:21:21;20.70;79.70
57552;DHT22;43379;48.160;14.036;2023-05-09T09:23:48;20.60;77.60
57552;DHT22;43379;48.160;14.036;2023-05-09T09:26:14;20.60;80.00
57552;DHT22;43379;48.160;14.036;2023-05-09T09:28:41;20.70;82.10
57552;DHT22;43379;48.160;14.036;2023-05-09T09:31:22;20.80;80.30
57552;DHT22;43379;48.160;14.036;2023-05-09T09:33:48;20.80;82.10
57552;DHT22;43379;48.160;14.036;2023-05-09T09:36:14;20.80;80.50
57552;DHT22;43379;48.160;14.036;2023-05-09T09:38:40;20.70;80.50
57552;DHT22;43379;48.160;14.036;2023-05-09T09:41:08;20.70;81.50
57552;DHT22;43379;48.160;14.036;2023-05-09T09:43:35;20.80;80.00
57552;DHT22;43379;48.160;14.036;2023-05-09T09:46:02;20.70;78.70
57552;DHT22;43379;48.160;14.036;2023-05-09T09:48:33;20.60;79.30
57552;DHT22;43379;48.160;14.036;2023-05-09T09:51:09;20.50;79.30
57552;DHT22;43379;48.160;14.036;2023-05-09T09:53:39;20.40;80.60
57552;DHT22;43379;48.160;14.036;2023-05-09T09:56:05;20.50;80.60
57552;DHT22;43379;48.160;14.036;2023-05-09T09:58:31;20.40;81.50
57552;DHT22;43379;48.160;14.036;2023-05-09T10:01:07;20.50;82.70
57552;DHT22;43379;48.160;14.036;2023-05-09T10:03:37;20.70;82.20
57552;DHT22;43379;48.160;14.036;2023-05-09T10:06:03;20.60;79.50
57552;DHT22;43379;48.160;14.036;2023-05-09T10:08:29;20.50;81.20
57552;DHT22;43379;48.160;14.036;2023-05-09T10:10:55;20.70;85.10
57552;DHT22;43379;48.160;14.036;2023-05-09T10:13:23;20.70;80.30
57552;DHT22;43379;48.160;14.036;2023-05-09T10:15:49;20.80;80.80
57552;DHT22;43379;48.160;14.036;2023-05-09T10:18:16;20.60;79.00
57552;DHT22;43379;48.160;14.036;2023-05-09T10:20:44;20.50;80.90
57552;DHT22;43379;48.160;14.036;2023-05-09T10:23:12;20.50;80.50
57552;DHT22;43379;48.160;14.036;2023-05-09T10:25:48;20.50;80.60
57552;DHT22;43379;48.160;14.036;2023-05-09T10:28:22;20.30;80.90
57552;DHT22;43379;48.160;14.036;2023-05-09T10:31:25;20.50;82.20
57552;DHT22;43379;48.160;14.036;2023-05-09T10:33:49;20.30;79.50
57552;DHT22;43379;48.160;14.036;2023-05-09T10:36:20;20.20;82.30
57552;DHT22;43379;48.160;14.036;2023-05-09T10:38:47;20.40;85.20
57552;DHT22;43379;48.160;14.036;2023-05-09T10:41:15;20.30;81.90
57552;DHT22;43379;48.160;14.036;2023-05-09T10:43:41;20.40;82.30
57552;DHT22;43379;48.160;14.036;2023-05-09T10:46:08;20.40;80.80
57552;DHT22;43379;48.160;14.036;2023-05-09T10:48:34;20.50;83.50
57552;DHT22;43379;48.160;14.036;2023-05-09T10:51:01;20.20;80.90
57552;DHT22;43379;48.160;14.036;2023-05-09T10:53:41;20.30;82.50
57552;DHT22;43379;48.160;14.036;2023-05-09T10:56:09;20.30;82.10
57552;DHT22;43379;48.160;14.036;2023-05-09T10:58:46;20.20;82.20
57552;DHT22;43379;48.160;14.036;2023-05-09T11:01:12;20.30;84.60
57552;DHT22;43379;48.160;14.036;2023-05-09T11:03:54;20.30;83.60
57552;DHT22;43379;48.160;14.036;2023-05-09T11:06:51;20.30;81.80
57552;DHT22;43379;48.160;14.036;2023-05-09T11:09:25;20.30;82.30
57552;DHT22;43379;48.160;14.036;2023-05-09T11:17:11;20.10;83.30
57552;DHT22;43379;48.160;14.036;2023-05-09T11:24:48;20.10;84.20
57552;DHT22;43379;48.160;14.036;2023-05-09T11:27:22;20.10;84.90
57552;DHT22;43379;48.160;14.036;2023-05-09T11:29:53;20.30;88.80
57552;DHT22;43379;48.160;14.036;2023-05-09T11:32:21;20.30;83.40
57552;DHT22;43379;48.160;14.036;2023-05-09T11:34:47;20.30;86.50
57552;DHT22;43379;48.160;14.036;2023-05-09T11:37:16;20.40;85.30
57552;DHT22;43379;48.160;14.036;2023-05-09T11:39:59;20.40;85.30
57552;DHT22;43379;48.160;14.036;2023-05-09T11:42:27;20.50;85.20
57552;DHT22;43379;48.160;14.036;2023-05-09T11:44:53;20.40;84.70
57552;DHT22;43379;48.160;14.036;2023-05-09T11:47:20;20.40;84.60
57552;DHT22;43379;48.160;14.036;2023-05-09T11:49:47;20.30;84.10
57552;DHT22;43379;48.160;14.036;2023-05-09T11:52:14;20.10;84.70
57552;DHT22;43379;48.160;14.036;2023-05-09T11:54:40;20.20;86.70
57552;DHT22;43379;48.160;14.036;2023-05-09T11:57:06;20.40;86.70
57552;DHT22;43379;48.160;14.036;2023-05-09T11:59:35;20.30;85.00
57552;DHT22;43379;48.160;14.036;2023-05-09T12:02:06;20.30;85.80
57552;DHT22;43379;48.160;14.036;2023-05-09T12:04:32;20.30;84.80
57552;DHT22;43379;48.160;14.036;2023-05-09T12:06:58;20.40;85.50
57552;DHT22;43379;48.160;14.036;2023-05-09T12:09:28;20.30;84.70
57552;DHT22;43379;48.160;14.036;2023-05-09T12:11:54;20.30;86.90
57552;DHT22;43379;48.160;14.036;2023-05-09T12:14:31;20.30;85.40
57552;DHT22;43379;48.160;14.036;2023-05-09T12:16:57;20.30;85.50
57552;DHT22;43379;48.160;14.036;2023-05-09T12:19:26;20.20;85.10
57552;DHT22;43379;48.160;14.036;2023-05-09T12:21:59;20.20;85.70
57552;DHT22;43379;48.160;14.036;2023-05-09T12:24:26;20.20;86.20
57552;DHT22;43379;48.160;14.036;2023-05-09T12:26:56;20.20;85.80
57552;DHT22;43379;48.160;14.036;2023-05-09T12:29:23;20.20;84.90
57552;DHT22;43379;48.160;14.036;2023-05-09T12:31:50;20.30;86.50
57552;DHT22;43379;48.160;14.036;2023-05-09T12:34:16;20.30;84.40
57552;DHT22;43379;48.160;14.036;2023-05-09T12:36:43;20.30;84.00
57552;DHT22;43379;48.160;14.036;2023-05-09T12:39:18;20.20;84.50
57552;DHT22;43379;48.160;14.036;2023-05-09T12:41:50;20.00;84.40
57552;DHT22;43379;48.160;14.036;2023-05-09T12:44:24;20.00;85.30
57552;DHT22;43379;48.160;14.036;2023-05-09T12:46:59;20.00;85.00
57552;DHT22;43379;48.160;14.036;2023-05-09T12:49:25;20.00;86.90
57552;DHT22;43379;48.160;14.036;2023-05-09T12:51:52;20.10;86.50
57552;DHT22;43379;48.160;14.036;2023-05-09T12:54:22;20.00;85.50
57552;DHT22;43379;48.160;14.036;2023-05-09T12:56:49;20.10;86.90
57552;DHT22;43379;48.160;14.036;2023-05-09T12:59:23;20.10;86.10
57552;DHT22;43379;48.160;14.036;2023-05-09T13:01:57;20.10;85.20
57552;DHT22;43379;48.160;14.036;2023-05-09T13:04:24;20.10;86.40
57552;DHT22;43379;48.160;14.036;2023-05-09T13:06:52;20.10;86.40
57552;DHT22;43379;48.160;14.036;2023-05-09T13:09:23;20.10;85.90
57552;DHT22;43379;48.160;14.036;2023-05-09T13:11:50;20.00;85.30
57552;DHT22;43379;48.160;14.036;2023-05-09T13:14:17;20.00;86.90
57552;DHT22;43379;48.160;14.036;2023-05-09T13:16:43;20.10;85.60
57552;DHT22;43379;48.160;14.036;2023-05-09T13:19:09;20.00;86.00
57552;DHT22;43379;48.160;14.036;2023-05-09T13:21:35;20.00;85.60
57552;DHT22;43379;48.160;14.036;2023-05-09T13:24:02;19.90;85.60
57552;DHT22;43379;48.160;14.036;2023-05-09T13:26:28;19.90;86.00
57552;DHT22;43379;48.160;14.036;2023-05-09T13:28:54;19.90;84.80
57552;DHT22;43379;48.160;14.036;2023-05-09T13:31:20;19.90;85.20
57552;DHT22;43379;48.160;14.036;2023-05-09T13:33:47;20.00;85.70
57552;DHT22;43379;48.160;14.036;2023-05-09T13:36:13;20.10;86.40
57552;DHT22;43379;48.160;14.036;2023-05-09T13:38:38;19.90;84.60
57552;DHT22;43379;48.160;14.036;2023-05-09T13:41:08;19.90;84.80
57552;DHT22;43379;48.160;14.036;2023-05-09T13:43:34;19.90;85.40
57552;DHT22;43379;48.160;14.036;2023-05-09T13:46:01;19.90;84.50
57552;DHT22;43379;48.160;14.036;2023-05-09T13:48:27;20.00;84.40
57552;DHT22;43379;48.160;14.036;2023-05-09T13:50:52;19.80;84.40
57552;DHT22;43379;48.160;14.036;2023-05-09T13:53:18;19.90;86.10
57552;DHT22;43379;48.160;14.036;2023-05-09T13:55:44;20.00;85.50
57552;DHT22;43379;48.160;14.036;2023-05-09T13:58:11;20.00;84.90
57552;DHT22;43379;48.160;14.036;2023-05-09T14:00:37;20.10;84.50
57552;DHT22;43379;48.160;14.036;2023-05-09T14:03:03;20.20;84.90
57552;DHT22;43379;48.160;14.036;2023-05-09T14:05:31;20.20;85.30
57552;DHT22;43379;48.160;14.036;2023-05-09T14:07:57;20.20;84.80
57552;DHT22;43379;48.160;14.036;2023-05-09T14:10:23;20.20;84.20
57552;DHT22;43379;48.160;14.036;2023-05-09T14:12:51;20.20;83.70
57552;DHT22;43379;48.160;14.036;2023-05-09T14:15:17;20.10;84.40
57552;DHT22;43379;48.160;14.036;2023-05-09T14:17:43;20.10;84.60
57552;DHT22;43379;48.160;14.036;2023-05-09T14:20:09;20.10;85.20
57552;DHT22;43379;48.160;14.036;2023-05-09T14:22:35;20.20;85.80
57552;DHT22;43379;48.160;14.036;2023-05-09T14:25:01;20.30;86.30
57552;DHT22;43379;48.160;14.036;2023-05-09T14:27:27;20.30;85.60
57552;DHT22;43379;48.160;14.036;2023-05-09T14:29:52;20.30;85.70
57552;DHT22;43379;48.160;14.036;2023-05-09T14:32:18;20.20;85.30
57552;DHT22;43379;48.160;14.036;2023-05-09T14:34:44;20.20;85.40
57552;DHT22;43379;48.160;14.036;2023-05-09T14:37:10;20.30;85.90
57552;DHT22;43379;48.160;14.036;2023-05-09T14:39:39;20.30;85.10
57552;DHT22;43379;48.160;14.036;2023-05-09T14:42:07;20.30;85.10
57552;DHT22;43379;48.160;14.036;2023-05-09T14:44:36;20.20;84.60
57552;DHT22;43379;48.160;14.036;2023-05-09T14:47:01;20.20;85.40
57552;DHT22;43379;48.160;14.036;2023-05-09T14:49:27;20.20;85.20
57552;DHT22;43379;48.160;14.036;2023-05-09T14:51:53;20.20;84.90
57552;DHT22;43379;48.160;14.036;2023-05-09T14:54:18;20.30;84.90
57552;DHT22;43379;48.160;14.036;2023-05-09T14:56:44;20.30;84.70
57552;DHT22;43379;48.160;14.036;2023-05-09T14:59:10;20.30;85.10
57552;DHT22;43379;48.160;14.036;2023-05-09T15:01:36;20.20;84.60
57552;DHT22;43379;48.160;14.036;2023-05-09T15:04:02;20.20;84.80
57552;DHT22;43379;48.160;14.036;2023-05-09T15:06:27;20.20;84.70
57552;DHT22;43379;48.160;14.036;2023-05-09T15:08:54;20.10;85.90
57552;DHT22;43379;48.160;14.036;2023-05-09T15:11:21;20.20;85.10
57552;DHT22;43379;48.160;14.036;2023-05-09T15:13:46;20.20;85.10
57552;DHT22;43379;48.160;14.036;2023-05-09T15:16:13;20.20;84.90
57552;DHT22;43379;48.160;14.036;2023-05-09T15:18:38;20.30;85.30
57552;DHT22;43379;48.160;14.036;2023-05-09T15:21:08;20.30;84.90
57552;DHT22;43379;48.160;14.036;2023-05-09T15:23:34;20.30;84.20
57552;DHT22;43379;48.160;14.036;2023-05-09T15:26:00;20.20;84.10
57552;DHT22;43379;48.160;14.036;2023-05-09T15:28:26;20.20;84.20
57552;DHT22;43379;48.160;14.036;2023-05-09T15:30:52;20.20;84.00
57552;DHT22;43379;48.160;14.036;2023-05-09T15:33:18;20.10;84.10
57552;DHT22;43379;48.160;14.036;2023-05-09T15:35:44;20.10;84.40
57552;DHT22;43379;48.160;14.036;2023-05-09T15:38:10;20.10;84.10